Tuesday, June 19, 2018, 4:01 PM EDT
Back to Local

KFME, Fort Meade / Tipton

Location: Laurel, MD, United States Lat: 39.083
Local Time: 4:01 PM EDT (20:01 GMT) Lon: -76.767
Time Zone: US/Eastern Elev: 150 ft

Show me the last for .
Show Decoded

2018-06-19 15:36 METAR KFME 191936Z AUTO 00000KT 7SM SCT032 BKN046 OVC080 25/23 A2987 RMK AO1 =
2018-06-19 15:15 METAR KFME 191915Z AUTO 36003KT 4SM BKN032 OVC050 25/24 A2985 RMK AO1 =
2018-06-19 14:57 METAR KFME 191857Z AUTO 00000KT 5SM BKN032 BKN045 OVC050 26/24 A2986 RMK AO1 =
2018-06-19 14:36 METAR KFME 191836Z AUTO 11006KT 10SM SCT030 SCT041 BKN065 27/24 A2985 RMK AO1 =
2018-06-19 14:15 METAR KFME 191815Z AUTO 00000KT 5SM SCT034 SCT044 BKN065 26/25 A2985 RMK AO1 =
2018-06-19 13:57 METAR KFME 191757Z AUTO 34003KT 1SM BKN015 OVC022 25/23 A2986 RMK AO1 =
2018-06-19 13:36 METAR KFME 191736Z AUTO 26013KT 1/2SM BKN012 OVC020 26/23 A2985 RMK AO1 =
2018-06-19 13:15 METAR KFME 191715Z AUTO 36005KT 10SM 31/22 A2984 RMK AO1 =
2018-06-19 12:57 METAR KFME 191657Z AUTO 34007KT 300V000 10SM SCT043 SCT060 BKN110 32/22 A2985
                 RMK AO1 =
2018-06-19 12:36 METAR KFME 191636Z AUTO 32006KT 10SM SCT041 SCT047 BKN070 31/22 A2985 RMK AO1 =
2018-06-19 12:15 METAR KFME 191615Z AUTO 30006KT 10SM BKN070 30/22 A2985 RMK AO1 =
2018-06-19 11:57 METAR KFME 191557Z AUTO 31009G14KT 10SM SCT048 SCT060 BKN070 31/23 A2986 RMK AO1
                 =
2018-06-19 11:36 METAR KFME 191536Z AUTO 31008G14KT 270V330 10SM SCT041 BKN070 30/23 A2986 RMK
                 AO1 =
2018-06-19 11:15 METAR KFME 191515Z AUTO 32007G15KT 280V340 10SM SCT070 31/22 A2986 RMK AO1 =
2018-06-19 10:57 METAR KFME 191457Z AUTO 29009G14KT 10SM SCT040 31/23 A2985 RMK AO1 =
2018-06-19 10:36 METAR KFME 191436Z AUTO 31006KT 10SM CLR 31/23 A2985 RMK AO1 =
2018-06-19 10:15 METAR KFME 191415Z AUTO 28012G16KT 10SM CLR 30/23 A2986 RMK AO1 =
2018-06-19 09:57 METAR KFME 191357Z AUTO 27009KT 10SM CLR 30/23 A2986 RMK AO1 =
2018-06-19 09:36 METAR KFME 191336Z AUTO 27004KT 10SM CLR 28/23 A2986 RMK AO1 =
2018-06-19 09:15 METAR KFME 191315Z AUTO 28003KT 10SM CLR 28/23 A2986 RMK AO1 =
2018-06-19 08:57 METAR KFME 191257Z AUTO 26003KT 10SM CLR 26/23 A2986 RMK AO1 =
2018-06-19 08:36 METAR KFME 191236Z AUTO 00000KT 10SM CLR 25/23 A2987 RMK AO1 =
2018-06-19 08:15 METAR KFME 191215Z AUTO 00000KT 7SM CLR 23/22 A2988 RMK AO1 =
2018-06-19 07:57 METAR KFME 191157Z AUTO 00000KT 5SM CLR 23/22 A2988 RMK AO1 =
2018-06-19 07:36 METAR KFME 191136Z AUTO 00000KT 7SM CLR 22/21 A2987 RMK AO1 =
2018-06-19 07:15 METAR KFME 191115Z AUTO 00000KT 5SM CLR 22/21 A2988 RMK AO1 =
2018-06-19 06:57 METAR KFME 191057Z AUTO 00000KT 5SM CLR 22/21 A2987 RMK AO1 =
2018-06-19 06:36 METAR KFME 191036Z AUTO 00000KT 7SM CLR 22/21 A2987 RMK AO1 =
2018-06-19 06:15 METAR KFME 191015Z AUTO 00000KT 10SM CLR 22/21 A2987 RMK AO1 =
2018-06-19 05:57 METAR KFME 190957Z AUTO 00000KT 5SM CLR 22/21 A2987 RMK AO1 =
2018-06-19 05:36 METAR KFME 190936Z AUTO 00000KT 7SM CLR 22/21 A2987 RMK AO1 =
2018-06-19 05:15 METAR KFME 190915Z AUTO 00000KT 7SM CLR 22/21 A2986 RMK AO1 =
2018-06-19 04:57 METAR KFME 190857Z AUTO 00000KT 4SM CLR 22/21 A2985 RMK AO1 =
2018-06-19 04:36 METAR KFME 190836Z AUTO 23003KT 4SM CLR 22/21 A2985 RMK AO1 =
2018-06-19 04:15 METAR KFME 190815Z AUTO 26003KT 5SM CLR 22/21 A2986 RMK AO1 =
2018-06-19 03:57 METAR KFME 190757Z AUTO 28003KT 7SM CLR 22/21 A2986 RMK AO1 =
2018-06-19 03:36 METAR KFME 190736Z AUTO 00000KT 4SM CLR 22/21 A2985 RMK AO1 =
2018-06-19 03:15 METAR KFME 190715Z AUTO 00000KT 4SM CLR 22/22 A2985 RMK AO1 =
2018-06-19 02:57 METAR KFME 190657Z AUTO 00000KT 3SM CLR 22/22 A2985 RMK AO1 =
2018-06-19 02:36 METAR KFME 190636Z AUTO 00000KT 4SM CLR 22/22 A2987 RMK AO1 =
2018-06-19 02:15 METAR KFME 190615Z AUTO 00000KT 4SM CLR 22/22 A2987 RMK AO1 =
2018-06-19 01:57 METAR KFME 190557Z AUTO 22003KT 4SM CLR 22/22 A2988 RMK AO1 =
2018-06-19 01:36 METAR KFME 190536Z AUTO 24003KT 4SM CLR 23/22 A2988 RMK AO1 =
2018-06-19 01:15 METAR KFME 190515Z AUTO 25004KT 5SM CLR 23/22 A2989 RMK AO1 =
2018-06-19 00:57 METAR KFME 190457Z AUTO 25005KT 5SM CLR 23/22 A2990 RMK AO1 =
2018-06-19 00:36 METAR KFME 190436Z AUTO 25005KT 4SM CLR 23/22 A2990 RMK AO1 =
2018-06-19 00:15 METAR KFME 190415Z AUTO 24004KT 4SM CLR 23/22 A2990 RMK AO1 =
2018-06-18 23:57 METAR KFME 190357Z AUTO 23005KT 5SM CLR 23/22 A2990 RMK AO1 =
2018-06-18 23:36 METAR KFME 190336Z AUTO 24003KT 5SM CLR 23/22 A2991 RMK AO1 =
2018-06-18 23:15 METAR KFME 190315Z AUTO 21003KT 7SM CLR 23/22 A2992 RMK AO1 =
2018-06-18 22:57 METAR KFME 190257Z AUTO 00000KT 7SM CLR 24/23 A2992 RMK AO1 =
2018-06-18 22:36 METAR KFME 190236Z AUTO 00000KT 7SM CLR 24/23 A2992 RMK AO1 =
2018-06-18 22:15 METAR KFME 190215Z AUTO 00000KT 10SM CLR 25/23 A2991 RMK AO1 =
2018-06-18 21:57 METAR KFME 190157Z AUTO 00000KT 10SM CLR 25/23 A2991 RMK AO1 =
2018-06-18 21:36 METAR KFME 190136Z AUTO 20004KT 10SM CLR 25/23 A2990 RMK AO1 =
2018-06-18 21:15 METAR KFME 190115Z AUTO 21004KT 10SM CLR 26/23 A2990 RMK AO1 =
2018-06-18 20:57 METAR KFME 190057Z AUTO 22004KT 10SM CLR 26/23 A2990 RMK AO1 =
2018-06-18 20:36 METAR KFME 190036Z AUTO 20005KT 10SM CLR 26/23 A2990 RMK AO1 =
2018-06-18 20:15 METAR KFME 190015Z AUTO 21003KT 10SM CLR 27/24 A2990 RMK AO1 =
2018-06-18 19:57 METAR KFME 182357Z AUTO 20005KT 10SM CLR 27/24 A2989 RMK AO1 =
2018-06-18 19:36 METAR KFME 182336Z AUTO 21004KT 10SM CLR 28/24 A2989 RMK AO1 =
2018-06-18 19:15 METAR KFME 182315Z AUTO 21004KT 10SM CLR 29/24 A2990 RMK AO1 =
2018-06-18 18:57 METAR KFME 182257Z AUTO 00000KT 10SM CLR 28/24 A2990 RMK AO1 =
2018-06-18 18:36 METAR KFME 182236Z AUTO 00000KT 10SM CLR 30/22 A2992 RMK AO1 =
2018-06-18 18:15 METAR KFME 182215Z AUTO 15003KT 10SM CLR 30/22 A2993 RMK AO1 =
2018-06-18 17:57 METAR KFME 182157Z AUTO 00000KT 10SM CLR 29/22 A2993 RMK AO1 =
2018-06-18 17:36 METAR KFME 182136Z AUTO 00000KT 10SM SCT048 28/21 A2993 RMK AO1 =
2018-06-18 17:15 METAR KFME 182115Z AUTO 31006KT 10SM BKN050 BKN060 BKN070 29/22 A2995 RMK AO1 =
2018-06-18 16:57 METAR KFME 182057Z AUTO 22003KT 10SM 30/25 A2995 RMK AO1 =
2018-06-18 16:36 METAR KFME 182036Z AUTO 20005KT 10SM 32/23 A2995 RMK AO1 =
2018-06-18 16:15 METAR KFME 182015Z AUTO 19004KT 10SM 31/23 A2995 RMK AO1 =

Support USWX by starting your Amazon purchase here.